Time;durP1;ratioP1;P1;durP2;ratioP2;P2;SDS_P1;SDS_P2;PMS_P1;PMS_P2;Temp;Humidity;BMP_temperature;BMP_pressure;BME280_temperature;BME280_humidity;BME280_pressure;Samples;Min_cycle;Max_cycle;Signal;HPM_P1;HPM_P2
2020/12/22 00:01:17;;;;;;;4.13;1.60;;;9.80;99.90;;;;;;5051153;28;20154;-68
2020/12/22 00:03:43;;;;;;;1.35;1.25;;;9.80;99.90;;;;;;5050385;28;20021;-70
2020/12/22 00:06:09;;;;;;;1.85;1.25;;;9.80;99.90;;;;;;5050832;28;20158;-70
2020/12/22 00:08:35;;;;;;;1.10;1.10;;;9.80;99.90;;;;;;5051246;28;20108;-70
2020/12/22 00:11:01;;;;;;;4.40;0.90;;;9.80;99.90;;;;;;5051166;28;20082;-69
2020/12/22 00:13:26;;;;;;;1.52;1.00;;;10.00;99.90;;;;;;5050125;28;20175;-69
2020/12/22 00:15:52;;;;;;;1.90;1.55;;;10.00;99.90;;;;;;5049508;28;20021;-70
2020/12/22 00:18:18;;;;;;;1.38;1.27;;;10.10;99.90;;;;;;5050910;28;20082;-70
2020/12/22 00:20:44;;;;;;;1.10;0.90;;;10.00;99.90;;;;;;5052889;28;20035;-70
2020/12/22 00:23:10;;;;;;;1.27;1.00;;;10.00;99.90;;;;;;5054071;28;20467;-70
2020/12/22 00:25:46;;;;;;;0.90;0.90;;;10.00;99.90;;;;;;5054808;28;20035;-69
2020/12/22 00:28:13;;;;;;;0.80;0.80;;;10.00;99.90;;;;;;5054435;28;20490;-68
2020/12/22 00:30:39;;;;;;;1.02;0.88;;;10.00;99.90;;;;;;5054736;28;20033;-69
2020/12/22 00:33:05;;;;;;;0.80;0.80;;;10.00;99.90;;;;;;5061060;28;20025;-69
2020/12/22 00:35:31;;;;;;;1.00;1.00;;;10.00;99.90;;;;;;5065972;28;20044;-69
2020/12/22 00:37:58;;;;;;;0.90;0.90;;;10.10;99.90;;;;;;5056974;28;20086;-69
2020/12/22 00:40:24;;;;;;;0.90;0.90;;;10.10;99.90;;;;;;5054477;28;20059;-69
2020/12/22 00:42:50;;;;;;;0.85;0.85;;;10.10;99.90;;;;;;5053709;28;20021;-70
2020/12/22 00:45:16;;;;;;;0.50;0.50;;;10.10;99.90;;;;;;5054256;28;20025;-68
2020/12/22 00:47:42;;;;;;;0.82;0.65;;;10.20;99.90;;;;;;5054409;28;20112;-68
2020/12/22 00:50:08;;;;;;;1.98;0.63;;;10.30;99.90;;;;;;5052954;28;20079;-68
2020/12/22 00:52:33;;;;;;;0.73;0.70;;;10.30;99.90;;;;;;5054289;28;20043;-67
2020/12/22 00:54:59;;;;;;;0.50;0.50;;;10.30;99.90;;;;;;5053590;28;20364;-69
2020/12/22 00:57:25;;;;;;;0.50;0.50;;;10.40;99.90;;;;;;5054366;28;20082;-69
2020/12/22 00:59:50;;;;;;;0.60;0.60;;;10.40;99.90;;;;;;5054003;28;20053;-70
2020/12/22 01:02:16;;;;;;;0.50;0.50;;;10.40;99.90;;;;;;5052431;28;20029;-68
2020/12/22 01:04:42;;;;;;;0.52;0.52;;;10.50;99.90;;;;;;5053065;28;20025;-69
2020/12/22 01:07:07;;;;;;;0.98;0.60;;;10.50;99.90;;;;;;5047983;28;20029;-69
2020/12/22 01:09:33;;;;;;;0.75;0.45;;;10.60;99.90;;;;;;5053934;28;20368;-71
2020/12/22 01:11:59;;;;;;;0.88;0.47;;;10.60;99.90;;;;;;5052606;28;20140;-69
2020/12/22 01:14:24;;;;;;;0.52;0.52;;;10.60;99.90;;;;;;5052837;28;20445;-70
2020/12/22 01:16:50;;;;;;;1.13;0.52;;;10.60;99.90;;;;;;5053447;28;20100;-69
2020/12/22 01:19:16;;;;;;;0.30;0.30;;;10.60;99.90;;;;;;5053358;28;20028;-69
2020/12/22 01:21:41;;;;;;;0.85;0.40;;;10.60;99.90;;;;;;5053519;28;20029;-70
2020/12/22 01:24:07;;;;;;;0.70;0.28;;;10.70;99.90;;;;;;5051535;28;20029;-69
2020/12/22 01:26:33;;;;;;;0.65;0.50;;;10.60;99.90;;;;;;5053336;28;20028;-69
2020/12/22 01:28:59;;;;;;;0.47;0.32;;;10.60;99.90;;;;;;5052965;28;20029;-69
2020/12/22 01:31:29;;;;;;;0.40;0.40;;;10.60;99.90;;;;;;5053370;28;20112;-69
2020/12/22 01:33:55;;;;;;;1.05;0.50;;;10.60;99.90;;;;;;5052686;28;20025;-69
2020/12/22 01:36:22;;;;;;;0.40;0.40;;;10.60;99.90;;;;;;5052628;28;20018;-69
2020/12/22 01:38:48;;;;;;;0.40;0.40;;;10.70;99.90;;;;;;5053325;28;20025;-69
2020/12/22 01:41:14;;;;;;;0.85;0.40;;;10.60;99.90;;;;;;5053924;28;20383;-70
2020/12/22 01:43:40;;;;;;;0.60;0.40;;;10.60;99.90;;;;;;5052518;28;20013;-69
2020/12/22 01:46:06;;;;;;;0.40;0.40;;;10.70;99.90;;;;;;5053006;28;20124;-69
2020/12/22 01:48:34;;;;;;;0.30;0.30;;;10.60;99.90;;;;;;5052424;28;20021;-69
2020/12/22 01:50:59;;;;;;;0.30;0.30;;;10.70;99.90;;;;;;5052798;28;20021;-70
2020/12/22 01:53:26;;;;;;;1.73;0.30;;;10.60;99.90;;;;;;5052269;28;20031;-69
2020/12/22 01:55:52;;;;;;;0.70;0.40;;;10.70;99.90;;;;;;5052632;28;20075;-70
2020/12/22 01:58:19;;;;;;;0.40;0.40;;;10.70;99.90;;;;;;5053076;28;20576;-70
2020/12/22 02:00:45;;;;;;;0.75;0.50;;;10.70;99.90;;;;;;5052779;28;20100;-70
2020/12/22 02:03:10;;;;;;;0.40;0.40;;;10.70;99.90;;;;;;5052045;28;20128;-70
2020/12/22 02:05:40;;;;;;;0.52;0.45;;;10.70;99.90;;;;;;5052205;28;20079;-69
2020/12/22 02:08:06;;;;;;;0.32;0.30;;;10.70;99.90;;;;;;5052553;28;20555;-69
2020/12/22 02:10:32;;;;;;;1.80;0.40;;;10.70;99.90;;;;;;5077124;23;20095;-70
2020/12/22 02:12:59;;;;;;;1.15;0.30;;;10.70;99.90;;;;;;5059201;28;20032;-70
2020/12/22 02:15:25;;;;;;;0.30;0.30;;;10.70;99.90;;;;;;5034874;28;20037;-69
2020/12/22 02:17:51;;;;;;;1.05;0.43;;;10.80;99.90;;;;;;5040937;28;20104;-70
2020/12/22 02:20:17;;;;;;;0.35;0.35;;;10.80;99.90;;;;;;5064094;28;20045;-72
2020/12/22 02:22:43;;;;;;;0.40;0.40;;;10.80;99.90;;;;;;5057593;28;20025;-71
2020/12/22 02:25:16;;;;;;;0.95;0.47;;;10.80;99.90;;;;;;5054189;28;20113;-69
2020/12/22 02:27:42;;;;;;;0.30;0.30;;;10.80;99.90;;;;;;5053187;28;20021;-69
2020/12/22 02:30:08;;;;;;;2.28;0.40;;;10.90;99.90;;;;;;5053331;28;20083;-70
2020/12/22 02:32:34;;;;;;;0.50;0.30;;;10.90;99.90;;;;;;5053476;28;20383;-70
2020/12/22 02:35:00;;;;;;;1.30;0.50;;;10.90;99.90;;;;;;5052274;28;20096;-70
2020/12/22 02:37:25;;;;;;;0.60;0.45;;;10.90;99.90;;;;;;5052906;28;20028;-70
2020/12/22 02:39:51;;;;;;;0.40;0.40;;;10.90;99.90;;;;;;5053203;28;20021;-69
2020/12/22 02:42:17;;;;;;;0.40;0.40;;;10.90;99.90;;;;;;5052810;28;20028;-70
2020/12/22 02:44:43;;;;;;;2.75;0.50;;;10.90;99.90;;;;;;5051976;28;20069;-70
2020/12/22 02:47:13;;;;;;;1.17;0.28;;;11.00;99.90;;;;;;5052514;28;20068;-71
2020/12/22 02:49:40;;;;;;;0.40;0.40;;;11.00;99.90;;;;;;5051983;28;20021;-70
2020/12/22 02:52:06;;;;;;;1.83;0.40;;;11.00;99.90;;;;;;5052212;28;20376;-70
2020/12/22 02:54:32;;;;;;;0.30;0.30;;;11.00;99.90;;;;;;5051358;28;20028;-72
2020/12/22 02:56:58;;;;;;;0.28;0.28;;;11.10;99.90;;;;;;5051825;28;20138;-69
2020/12/22 02:59:23;;;;;;;2.00;0.40;;;11.10;99.90;;;;;;5051809;28;20661;-69
2020/12/22 03:01:49;;;;;;;0.65;0.45;;;11.10;99.90;;;;;;5051756;28;20067;-71
2020/12/22 03:04:15;;;;;;;0.73;0.28;;;11.20;99.90;;;;;;5050824;28;20064;-71
2020/12/22 03:06:40;;;;;;;0.30;0.20;;;11.20;99.90;;;;;;5051858;28;20100;-70
2020/12/22 03:09:07;;;;;;;0.30;0.20;;;11.20;99.90;;;;;;5051742;28;20437;-71
2020/12/22 03:11:34;;;;;;;0.22;0.20;;;11.30;99.90;;;;;;5051713;28;20179;-70
2020/12/22 03:14:00;;;;;;;0.20;0.20;;;11.30;99.90;;;;;;5050860;28;20028;-69
2020/12/22 03:16:26;;;;;;;0.95;0.20;;;11.30;99.90;;;;;;5051557;28;20028;-70
2020/12/22 03:18:51;;;;;;;0.55;0.40;;;11.30;99.90;;;;;;5051572;28;20025;-70
2020/12/22 03:21:17;;;;;;;0.30;0.30;;;11.40;99.90;;;;;;5051535;28;20053;-70
2020/12/22 03:23:43;;;;;;;0.40;0.40;;;11.40;99.90;;;;;;5051008;28;20025;-70
2020/12/22 03:26:09;;;;;;;1.63;0.30;;;11.40;99.90;;;;;;5051486;28;20471;-70
2020/12/22 03:28:35;;;;;;;0.25;0.20;;;11.50;99.90;;;;;;5050385;28;20039;-70
2020/12/22 03:31:01;;;;;;;0.20;0.20;;;11.50;99.90;;;;;;5051481;28;20028;-71
2020/12/22 03:33:26;;;;;;;1.08;0.20;;;11.70;99.90;;;;;;5050721;28;20059;-70
2020/12/22 03:35:52;;;;;;;0.20;0.20;;;11.70;99.90;;;;;;5051629;28;20549;-70
2020/12/22 03:38:18;;;;;;;1.05;0.10;;;11.60;99.90;;;;;;5051492;28;20029;-69
2020/12/22 03:40:43;;;;;;;0.20;0.20;;;11.70;99.90;;;;;;5051617;28;20103;-71
2020/12/22 03:43:09;;;;;;;0.10;0.10;;;11.70;99.90;;;;;;5048487;28;20070;-71
2020/12/22 03:45:38;;;;;;;0.17;0.17;;;11.70;99.90;;;;;;5051154;28;20044;-70
2020/12/22 03:48:04;;;;;;;0.20;0.20;;;11.80;99.90;;;;;;5051501;28;20053;-70
2020/12/22 03:50:30;;;;;;;0.32;0.10;;;11.80;99.90;;;;;;5049892;28;20063;-69
2020/12/22 03:52:59;;;;;;;0.10;0.10;;;11.80;99.90;;;;;;5050810;28;20036;-69
2020/12/22 03:55:24;;;;;;;0.20;0.20;;;11.90;99.90;;;;;;5054230;28;20432;-70
2020/12/22 03:57:50;;;;;;;0.30;0.20;;;11.90;99.90;;;;;;5054380;28;20104;-70
2020/12/22 04:00:17;;;;;;;0.32;0.10;;;11.90;99.90;;;;;;5055308;28;20021;-70
2020/12/22 04:02:43;;;;;;;1.10;0.10;;;11.90;99.90;;;;;;5054545;28;20021;-69
2020/12/22 04:05:08;;;;;;;0.30;0.10;;;11.90;99.90;;;;;;5055156;28;20029;-70
2020/12/22 04:07:34;;;;;;;0.35;0.17;;;12.00;99.90;;;;;;5055301;28;20123;-70
2020/12/22 04:10:01;;;;;;;1.48;0.00;;;12.00;99.90;;;;;;5054231;28;20501;-69
2020/12/22 04:12:27;;;;;;;0.10;0.10;;;12.00;99.90;;;;;;5054849;28;20035;-70
2020/12/22 04:14:52;;;;;;;1.40;0.15;;;12.00;99.90;;;;;;5054213;28;20033;-70
2020/12/22 04:17:18;;;;;;;0.10;0.10;;;12.00;99.90;;;;;;5055097;28;20359;-69
2020/12/22 04:19:44;;;;;;;0.32;0.10;;;12.00;99.90;;;;;;5054969;28;20475;-71
2020/12/22 04:22:09;;;;;;;0.10;0.10;;;12.00;99.90;;;;;;5054740;28;20029;-70
2020/12/22 04:24:35;;;;;;;0.10;0.10;;;12.00;99.90;;;;;;5054079;28;20029;-70
2020/12/22 04:27:01;;;;;;;0.22;0.10;;;12.00;99.90;;;;;;5053411;28;20029;-70
2020/12/22 04:29:26;;;;;;;0.10;0.10;;;12.00;99.90;;;;;;5054581;28;20025;-70
2020/12/22 04:31:52;;;;;;;0.32;0.10;;;12.10;99.90;;;;;;5054608;28;20025;-69
2020/12/22 04:34:17;;;;;;;0.30;0.30;;;12.00;99.90;;;;;;5053988;28;20430;-69
2020/12/22 04:36:43;;;;;;;0.10;0.10;;;12.10;99.90;;;;;;5054604;28;20478;-70
2020/12/22 04:39:09;;;;;;;1.45;0.10;;;12.10;99.90;;;;;;5054428;28;20074;-71
2020/12/22 04:41:36;;;;;;;0.22;0.10;;;12.00;99.90;;;;;;5054357;28;20094;-70
2020/12/22 04:44:02;;;;;;;0.10;0.10;;;12.00;99.90;;;;;;5052807;28;20025;-69
2020/12/22 04:46:31;;;;;;;0.32;0.10;;;12.00;99.90;;;;;;5054250;28;20059;-70
2020/12/22 04:48:57;;;;;;;0.93;0.10;;;12.00;99.90;;;;;;5054994;28;20024;-70
2020/12/22 04:51:25;;;;;;;0.52;0.10;;;12.00;99.90;;;;;;5055036;28;20036;-69
2020/12/22 04:53:51;;;;;;;0.20;0.13;;;12.00;99.90;;;;;;5053818;28;20021;-71
2020/12/22 04:56:20;;;;;;;1.75;0.50;;;12.00;99.90;;;;;;5055000;28;20494;-69
2020/12/22 04:58:46;;;;;;;0.75;0.10;;;12.00;99.90;;;;;;5055122;28;20458;-71
2020/12/22 05:01:12;;;;;;;0.10;0.10;;;12.00;99.90;;;;;;5053535;28;20363;-70
2020/12/22 05:03:38;;;;;;;0.30;0.10;;;12.00;99.90;;;;;;5053629;28;20029;-71
2020/12/22 05:06:04;;;;;;;0.32;0.10;;;11.90;99.90;;;;;;5052085;28;20032;-71
2020/12/22 05:08:29;;;;;;;1.25;0.20;;;11.90;99.90;;;;;;5050213;28;20025;-71
2020/12/22 05:10:55;;;;;;;0.25;0.20;;;11.90;99.90;;;;;;5046839;28;20498;-70
2020/12/22 05:13:22;;;;;;;0.20;0.20;;;11.90;99.90;;;;;;5051079;28;20032;-69
2020/12/22 05:15:50;;;;;;;0.20;0.20;;;11.90;99.90;;;;;;5050289;28;20635;-73
2020/12/22 05:18:19;;;;;;;0.73;0.30;;;11.90;99.90;;;;;;5048068;28;20021;-74
2020/12/22 05:20:46;;;;;;;0.57;0.25;;;11.80;99.90;;;;;;5044902;28;20501;-72
2020/12/22 05:23:20;;;;;;;0.13;0.13;;;11.90;99.90;;;;;;5041431;28;20029;-69
2020/12/22 05:25:48;;;;;;;0.45;0.20;;;11.90;99.90;;;;;;5033687;28;20582;-70
2020/12/22 05:28:15;;;;;;;1.10;0.30;;;12.00;99.90;;;;;;5041115;28;20040;-70
2020/12/22 05:30:42;;;;;;;0.20;0.20;;;11.90;99.90;;;;;;5052163;28;20025;-71
2020/12/22 05:33:08;;;;;;;0.35;0.30;;;11.90;99.90;;;;;;5052849;28;20511;-70
2020/12/22 05:35:38;;;;;;;0.35;0.30;;;11.90;99.90;;;;;;5052969;28;20063;-69
2020/12/22 05:38:05;;;;;;;0.45;0.20;;;11.90;99.90;;;;;;5053375;28;20467;-72
2020/12/22 05:40:34;;;;;;;2.38;0.32;;;12.00;99.90;;;;;;5053054;28;20108;-70
2020/12/22 05:43:01;;;;;;;0.50;0.30;;;12.00;99.90;;;;;;5052191;28;20042;-71
2020/12/22 05:45:34;;;;;;;0.40;0.20;;;12.00;99.90;;;;;;5053129;28;20051;-69
2020/12/22 05:48:00;;;;;;;0.20;0.20;;;12.00;99.90;;;;;;5052384;28;20036;-70
2020/12/22 05:50:27;;;;;;;0.68;0.30;;;12.00;99.90;;;;;;5052643;28;20569;-70
2020/12/22 05:52:56;;;;;;;1.50;0.30;;;12.10;99.90;;;;;;5052656;28;20036;-71
2020/12/22 05:55:29;;;;;;;1.95;0.43;;;12.10;99.90;;;;;;5052832;28;20017;-71
2020/12/22 05:58:15;;;;;;;1.75;0.30;;;12.10;99.90;;;;;;5052509;28;20025;-70
2020/12/22 06:00:44;;;;;;;1.50;0.50;;;12.10;99.90;;;;;;5052596;28;20033;-70
2020/12/22 06:03:12;;;;;;;1.55;0.40;;;12.10;99.90;;;;;;5052338;28;20018;-71
2020/12/22 06:05:43;;;;;;;0.93;0.50;;;12.20;99.90;;;;;;5052833;28;20051;-71
2020/12/22 06:08:10;;;;;;;2.05;0.50;;;12.10;99.90;;;;;;5052469;28;20029;-71
2020/12/22 06:10:38;;;;;;;0.32;0.32;;;12.10;99.90;;;;;;5052548;28;20052;-71
2020/12/22 06:13:05;;;;;;;1.50;0.38;;;12.10;99.90;;;;;;5051765;28;20033;-71
2020/12/22 06:15:33;;;;;;;0.95;0.35;;;12.10;99.90;;;;;;5050569;28;20021;-70
2020/12/22 06:17:59;;;;;;;1.77;0.50;;;12.10;99.90;;;;;;5051166;28;20079;-70
2020/12/22 06:20:26;;;;;;;1.38;0.40;;;12.20;99.90;;;;;;5052388;28;20021;-70
2020/12/22 06:23:00;;;;;;;0.22;0.20;;;12.30;99.90;;;;;;5051893;28;20032;-71
2020/12/22 06:25:26;;;;;;;0.88;0.30;;;12.20;99.90;;;;;;5052117;28;20025;-71
2020/12/22 06:27:52;;;;;;;1.08;0.50;;;12.30;99.90;;;;;;5051944;28;20080;-71
2020/12/22 06:30:19;;;;;;;0.30;0.30;;;12.30;99.90;;;;;;5052020;28;20074;-68
2020/12/22 06:32:44;;;;;;;0.50;0.20;;;12.30;99.90;;;;;;5051570;28;20040;-70
2020/12/22 06:35:31;;;;;;;0.60;0.20;;;12.40;99.90;;;;;;5052303;28;20029;-71
2020/12/22 06:37:58;;;;;;;0.80;0.50;;;12.40;99.90;;;;;;5051668;28;20115;-69
2020/12/22 06:40:54;;;;;;;0.45;0.20;;;12.50;99.90;;;;;;5052003;28;20025;-69
2020/12/22 06:43:49;;;;;;;0.20;0.20;;;12.40;99.90;;;;;;5042690;28;20498;-70
2020/12/22 06:46:33;;;;;;;0.75;0.50;;;12.40;99.90;;;;;;5045623;28;20041;-70
2020/12/22 06:48:59;;;;;;;1.08;0.75;;;12.40;99.90;;;;;;5051185;28;20075;-71
2020/12/22 06:51:29;;;;;;;0.73;0.35;;;12.40;99.90;;;;;;5052879;28;20029;-69
2020/12/22 06:53:55;;;;;;;0.40;0.30;;;12.40;99.90;;;;;;5046974;28;20106;-72
2020/12/22 06:56:47;;;;;;;0.68;0.30;;;12.50;99.90;;;;;;5041445;28;20025;-72
2020/12/22 06:59:33;;;;;;;0.68;0.47;;;12.50;99.90;;;;;;5040369;28;20040;-73
2020/12/22 07:01:59;;;;;;;0.40;0.40;;;12.60;99.90;;;;;;5040549;28;20021;-73
2020/12/22 07:04:25;;;;;;;0.40;0.30;;;12.60;99.90;;;;;;5040610;28;20037;-72
2020/12/22 07:06:53;;;;;;;0.77;0.57;;;12.60;99.90;;;;;;5037427;28;20025;-67
2020/12/22 07:09:22;;;;;;;2.05;0.40;;;12.60;99.90;;;;;;5036822;28;20029;-68
2020/12/22 07:11:51;;;;;;;3.60;0.57;;;12.70;99.90;;;;;;5046364;28;20092;-69
2020/12/22 07:14:22;;;;;;;0.30;0.30;;;12.70;99.90;;;;;;5054516;28;20024;-69
2020/12/22 07:16:50;;;;;;;3.72;0.40;;;12.80;99.90;;;;;;5052332;28;20025;-68
2020/12/22 07:19:22;;;;;;;0.28;0.28;;;12.90;99.90;;;;;;5054160;28;20025;-70
2020/12/22 07:21:48;;;;;;;0.20;0.20;;;13.00;99.90;;;;;;5056682;28;20085;-70
2020/12/22 07:24:14;;;;;;;0.40;0.40;;;12.90;99.90;;;;;;5057098;28;20274;-70
2020/12/22 07:26:41;;;;;;;0.38;0.20;;;12.80;99.90;;;;;;5057411;28;20021;-73
2020/12/22 07:29:06;;;;;;;0.28;0.28;;;12.80;99.90;;;;;;5040467;28;20487;-71
2020/12/22 07:31:36;;;;;;;0.50;0.20;;;12.80;99.90;;;;;;5037696;28;20052;-71
2020/12/22 07:34:05;;;;;;;0.90;0.40;;;12.80;99.90;;;;;;5033251;28;20108;-71
2020/12/22 07:36:32;;;;;;;0.70;0.40;;;12.80;99.90;;;;;;5031290;28;20026;-70
2020/12/22 07:39:23;;;;;;;0.50;0.38;;;12.80;99.90;;;;;;5046225;28;20421;-71
2020/12/22 07:41:50;;;;;;;0.65;0.45;;;12.80;99.90;;;;;;5031298;28;20069;-71
2020/12/22 07:44:20;;;;;;;0.40;0.40;;;12.80;99.90;;;;;;5030498;28;20029;-71
2020/12/22 07:46:48;;;;;;;0.38;0.30;;;12.90;99.90;;;;;;5031221;28;20021;-69
2020/12/22 07:49:15;;;;;;;0.32;0.30;;;13.00;99.90;;;;;;5030981;28;20041;-69
2020/12/22 07:51:42;;;;;;;2.38;0.30;;;12.90;99.90;;;;;;5030958;28;20030;-71
2020/12/22 07:54:08;;;;;;;0.80;0.35;;;12.90;99.90;;;;;;5030704;28;20112;-69
2020/12/22 07:56:36;;;;;;;1.90;0.40;;;13.00;99.90;;;;;;5031136;28;20104;-71
2020/12/22 07:59:07;;;;;;;0.20;0.20;;;13.10;99.90;;;;;;5045204;28;20021;-71
2020/12/22 08:01:42;;;;;;;0.65;0.30;;;13.00;99.90;;;;;;5050744;28;20024;-66
2020/12/22 08:04:11;;;;;;;0.30;0.30;;;13.10;99.90;;;;;;5050505;28;20025;-71
2020/12/22 08:06:37;;;;;;;0.32;0.32;;;13.10;99.90;;;;;;5051529;28;20029;-71
2020/12/22 08:09:03;;;;;;;0.20;0.20;;;13.10;99.90;;;;;;5051700;28;20025;-71
2020/12/22 08:11:31;;;;;;;0.38;0.38;;;13.20;99.90;;;;;;5051304;28;20039;-72
2020/12/22 08:13:57;;;;;;;0.43;0.40;;;13.20;99.90;;;;;;5050264;28;20029;-69
2020/12/22 08:16:23;;;;;;;0.47;0.40;;;13.20;99.90;;;;;;5049629;28;20021;-68
2020/12/22 08:18:50;;;;;;;0.30;0.30;;;13.20;99.90;;;;;;5051050;28;20103;-70
2020/12/22 08:21:19;;;;;;;3.15;0.22;;;13.10;99.90;;;;;;5049419;28;20510;-69
2020/12/22 08:23:46;;;;;;;11.43;7.47;;;13.20;99.90;;;;;;5050401;28;20029;-69
2020/12/22 08:26:14;;;;;;;0.80;0.80;;;13.20;99.90;;;;;;5050692;28;20032;-69
2020/12/22 08:28:50;;;;;;;0.65;0.65;;;13.20;99.90;;;;;;5050535;28;20487;-70
2020/12/22 08:31:24;;;;;;;0.38;0.30;;;13.20;99.90;;;;;;5050836;28;20040;-70
2020/12/22 08:33:55;;;;;;;0.88;0.88;;;13.20;99.90;;;;;;5050176;28;20021;-69
2020/12/22 08:36:22;;;;;;;0.45;0.40;;;13.30;99.90;;;;;;5050583;28;20479;-68
2020/12/22 08:38:48;;;;;;;1.15;0.60;;;13.30;99.90;;;;;;5050853;28;20025;-69
2020/12/22 08:41:20;;;;;;;0.32;0.20;;;13.40;99.90;;;;;;5051780;28;20487;-69
2020/12/22 08:43:51;;;;;;;6.43;5.80;;;13.30;99.90;;;;;;5054173;28;20443;-68
2020/12/22 08:46:18;;;;;;;0.50;0.38;;;13.40;99.90;;;;;;5054721;28;20032;-68
2020/12/22 08:48:43;;;;;;;0.20;0.20;;;13.40;99.90;;;;;;5054352;28;20537;-68
2020/12/22 08:51:09;;;;;;;0.60;0.40;;;13.40;99.90;;;;;;5053924;28;20017;-70
2020/12/22 08:53:36;;;;;;;1.40;1.40;;;13.40;99.90;;;;;;5053688;28;20025;-70
2020/12/22 08:56:09;;;;;;;0.77;0.40;;;13.70;99.90;;;;;;5054516;28;20471;-72
2020/12/22 08:58:50;;;;;;;0.20;0.20;;;13.60;99.90;;;;;;5054253;28;20049;-72
2020/12/22 09:01:21;;;;;;;0.47;0.30;;;13.60;99.90;;;;;;5054230;28;20418;-71
2020/12/22 09:03:55;;;;;;;1.58;0.20;;;13.60;99.90;;;;;;5047503;28;20490;-71
2020/12/22 09:06:47;;;;;;;0.80;0.30;;;13.60;99.90;;;;;;5050703;28;20052;-71
2020/12/22 09:09:23;;;;;;;1.17;0.80;;;13.70;99.90;;;;;;5045446;28;20384;-68
2020/12/22 09:11:49;;;;;;;0.73;0.30;;;14.20;99.90;;;;;;5035991;28;20411;-68
2020/12/22 09:14:19;;;;;;;0.35;0.25;;;14.30;99.90;;;;;;5032718;28;20018;-69
2020/12/22 09:16:44;;;;;;;0.30;0.30;;;14.50;99.90;;;;;;5033289;28;20124;-69
2020/12/22 09:19:10;;;;;;;6.93;0.73;;;14.70;99.90;;;;;;5033821;28;20068;-68
2020/12/22 09:21:36;;;;;;;0.77;0.40;;;14.50;99.90;;;;;;5033666;28;20431;-69
2020/12/22 09:24:01;;;;;;;0.40;0.40;;;14.30;99.90;;;;;;5033022;28;20030;-70
2020/12/22 09:26:27;;;;;;;0.93;0.90;;;14.10;99.90;;;;;;5033416;28;20093;-69
2020/12/22 09:28:53;;;;;;;2.47;0.70;;;13.90;99.90;;;;;;5045717;28;20029;-69
2020/12/22 09:31:26;;;;;;;1.23;0.50;;;13.80;99.90;;;;;;5054002;28;20017;-70
2020/12/22 09:33:52;;;;;;;0.50;0.50;;;13.60;99.90;;;;;;5052853;28;20013;-70
2020/12/22 09:36:18;;;;;;;156.80;100.05;;;13.50;99.90;;;;;;5053227;28;20506;-72
2020/12/22 09:38:43;;;;;;;3.22;1.33;;;13.40;99.90;;;;;;5053963;28;20382;-70
2020/12/22 09:41:09;;;;;;;0.38;0.38;;;13.30;99.90;;;;;;5054031;28;20100;-70
2020/12/22 09:43:35;;;;;;;0.40;0.40;;;13.20;99.90;;;;;;5042372;28;20542;-70
2020/12/22 09:46:01;;;;;;;1.25;0.90;;;13.40;99.90;;;;;;5053302;28;20398;-70
2020/12/22 09:48:26;;;;;;;1.73;1.10;;;13.50;99.90;;;;;;5040925;28;20395;-70
2020/12/22 09:50:52;;;;;;;1.63;1.00;;;13.50;99.90;;;;;;5033178;28;20510;-70
2020/12/22 09:53:19;;;;;;;2.20;1.13;;;13.70;99.90;;;;;;5049999;28;20404;-69
2020/12/22 09:55:44;;;;;;;1.15;0.68;;;13.80;99.90;;;;;;5052775;28;20108;-69
2020/12/22 09:58:10;;;;;;;1.15;0.95;;;13.80;99.90;;;;;;5053212;28;20147;-70
2020/12/22 10:00:36;;;;;;;0.70;0.70;;;13.80;99.90;;;;;;5053518;28;20527;-69
2020/12/22 10:03:01;;;;;;;10.65;7.30;;;13.80;99.90;;;;;;5052940;28;20109;-70
2020/12/22 10:05:27;;;;;;;0.98;0.98;;;13.90;99.90;;;;;;5053294;28;20029;-70
2020/12/22 10:07:53;;;;;;;0.95;0.57;;;14.00;99.90;;;;;;5053683;28;20124;-68
2020/12/22 10:10:18;;;;;;;0.60;0.60;;;14.20;99.90;;;;;;5053408;28;20107;-70
2020/12/22 10:12:44;;;;;;;0.57;0.57;;;14.40;99.90;;;;;;5052566;28;20064;-69
2020/12/22 10:15:10;;;;;;;0.40;0.30;;;14.30;99.90;;;;;;5053111;28;20051;-70
2020/12/22 10:17:35;;;;;;;0.30;0.30;;;14.40;99.90;;;;;;5053066;28;20063;-69
2020/12/22 10:20:01;;;;;;;1.23;1.15;;;14.40;99.90;;;;;;5054299;28;20509;-69
2020/12/22 10:22:30;;;;;;;1.48;1.13;;;14.40;99.90;;;;;;5052875;28;20025;-70
2020/12/22 10:24:55;;;;;;;1.70;0.30;;;14.30;99.90;;;;;;5051758;28;20103;-69
2020/12/22 10:27:21;;;;;;;2.55;0.50;;;14.20;99.90;;;;;;5052730;28;20068;-70
2020/12/22 10:29:47;;;;;;;0.40;0.30;;;14.20;99.90;;;;;;5052152;28;20032;-68
2020/12/22 10:32:13;;;;;;;0.30;0.30;;;14.10;99.90;;;;;;5052511;28;20025;-69
2020/12/22 10:34:38;;;;;;;2.05;0.50;;;14.10;99.90;;;;;;5051783;28;20494;-69
2020/12/22 10:37:04;;;;;;;0.22;0.22;;;14.00;99.90;;;;;;5052252;28;20107;-69
2020/12/22 10:39:30;;;;;;;1.13;0.38;;;14.10;99.90;;;;;;5052365;28;20025;-70
2020/12/22 10:41:57;;;;;;;0.57;0.30;;;14.10;99.90;;;;;;5051871;28;20024;-70
2020/12/22 10:44:23;;;;;;;1.15;0.50;;;14.00;99.90;;;;;;5051235;28;20028;-68
2020/12/22 10:46:48;;;;;;;0.38;0.38;;;14.10;99.90;;;;;;5052796;28;20418;-69
2020/12/22 10:49:14;;;;;;;0.30;0.28;;;14.00;99.90;;;;;;5050856;28;20479;-69
2020/12/22 10:51:40;;;;;;;0.90;0.45;;;14.00;99.90;;;;;;5053106;28;20036;-69
2020/12/22 10:54:05;;;;;;;0.30;0.20;;;14.00;99.90;;;;;;5051950;28;20044;-68
2020/12/22 10:56:31;;;;;;;1.05;0.32;;;14.00;99.90;;;;;;5052224;28;20029;-69
2020/12/22 10:58:58;;;;;;;0.20;0.20;;;14.10;99.90;;;;;;5058541;28;20021;-69
2020/12/22 11:01:24;;;;;;;0.30;0.30;;;14.00;99.90;;;;;;5063958;28;20091;-70
2020/12/22 11:03:50;;;;;;;1.02;0.30;;;13.90;99.90;;;;;;5061012;28;20474;-69
2020/12/22 11:08:48;;;;;;;;;;;14.00;99.90;;;;;;5055206;28;20040;-69
2020/12/22 11:11:15;;;;;;;2.90;0.40;;;14.10;99.90;;;;;;5048231;28;20362;-68
2020/12/22 11:13:41;;;;;;;0.30;0.30;;;14.20;99.90;;;;;;5053115;28;20061;-69
2020/12/22 11:16:12;;;;;;;0.88;0.43;;;14.10;99.90;;;;;;5033114;28;20026;-71
2020/12/22 11:18:41;;;;;;;0.98;0.38;;;14.10;99.90;;;;;;5032020;28;20100;-70
2020/12/22 11:21:11;;;;;;;0.38;0.38;;;14.10;99.90;;;;;;5032862;28;20454;-70
2020/12/22 11:23:37;;;;;;;0.28;0.28;;;14.20;99.90;;;;;;5032576;28;20021;-70
2020/12/22 11:26:03;;;;;;;4.90;0.60;;;14.30;99.90;;;;;;5052751;28;20051;-69
2020/12/22 11:28:29;;;;;;;0.30;0.30;;;14.00;99.90;;;;;;5051958;28;20180;-69
2020/12/22 11:30:54;;;;;;;0.98;0.45;;;14.10;99.90;;;;;;5050713;28;20490;-69
2020/12/22 11:33:20;;;;;;;1.13;0.32;;;14.00;99.90;;;;;;5049379;28;20505;-70
2020/12/22 11:35:46;;;;;;;0.40;0.40;;;14.10;99.90;;;;;;5051435;28;20025;-69
2020/12/22 11:38:11;;;;;;;0.40;0.22;;;14.10;99.90;;;;;;5030302;28;20036;-69
2020/12/22 11:40:37;;;;;;;0.47;0.30;;;14.20;99.90;;;;;;5030216;28;20475;-69
2020/12/22 11:43:03;;;;;;;0.30;0.30;;;14.10;99.90;;;;;;5030981;28;20535;-69
2020/12/22 11:45:28;;;;;;;0.70;0.70;;;14.20;99.90;;;;;;5031573;28;20499;-69
2020/12/22 11:47:54;;;;;;;0.63;0.20;;;14.10;99.90;;;;;;5032048;28;20052;-69
2020/12/22 11:50:19;;;;;;;0.30;0.30;;;14.10;99.90;;;;;;5031681;28;20087;-69
2020/12/22 11:52:45;;;;;;;0.25;0.20;;;14.00;99.90;;;;;;5031225;28;20112;-68
2020/12/22 11:55:11;;;;;;;0.22;0.22;;;13.90;99.90;;;;;;5045218;28;20049;-68
2020/12/22 11:57:36;;;;;;;2.10;0.47;;;13.90;99.90;;;;;;5051693;28;20051;-69
2020/12/22 12:00:05;;;;;;;3.67;0.65;;;13.80;99.90;;;;;;5051140;28;20098;-70
2020/12/22 12:02:30;;;;;;;1.27;0.52;;;13.80;99.90;;;;;;5051850;28;20024;-69
2020/12/22 12:04:56;;;;;;;1.65;0.80;;;13.80;99.90;;;;;;5050456;28;20025;-70
2020/12/22 12:07:22;;;;;;;0.40;0.40;;;13.70;99.90;;;;;;5051007;28;20029;-71
2020/12/22 12:09:47;;;;;;;0.63;0.30;;;13.70;99.90;;;;;;5051512;28;20372;-69
2020/12/22 12:12:13;;;;;;;0.45;0.45;;;13.80;99.90;;;;;;5053577;28;20189;-69
2020/12/22 12:14:38;;;;;;;0.57;0.30;;;13.90;99.90;;;;;;5052371;28;20083;-69
2020/12/22 12:17:07;;;;;;;0.52;0.50;;;13.90;99.90;;;;;;5056139;28;20088;-69
2020/12/22 12:19:33;;;;;;;0.45;0.30;;;13.80;99.90;;;;;;5062646;28;20684;-69
2020/12/22 12:22:02;;;;;;;1.08;0.40;;;13.90;99.90;;;;;;5055446;28;20048;-69
2020/12/22 12:24:28;;;;;;;0.30;0.30;;;14.00;99.90;;;;;;5055525;28;20025;-69
2020/12/22 12:26:54;;;;;;;0.50;0.50;;;14.00;99.90;;;;;;5048343;28;20025;-68
2020/12/22 12:29:20;;;;;;;1.88;0.40;;;14.00;99.90;;;;;;5038714;28;20029;-68
2020/12/22 12:31:47;;;;;;;0.52;0.47;;;14.10;99.90;;;;;;5034972;28;20102;-68
2020/12/22 12:34:12;;;;;;;0.30;0.30;;;14.10;99.90;;;;;;5033774;28;20029;-70
2020/12/22 12:36:38;;;;;;;3.08;0.40;;;14.10;99.90;;;;;;5034632;28;20025;-70
2020/12/22 12:39:04;;;;;;;0.40;0.40;;;14.00;99.90;;;;;;5043203;28;20028;-69
2020/12/22 12:41:29;;;;;;;0.65;0.40;;;14.10;99.90;;;;;;5057516;28;20010;-68
2020/12/22 12:43:55;;;;;;;1.13;0.40;;;14.20;99.90;;;;;;5046170;28;20049;-69
2020/12/22 12:46:21;;;;;;;0.50;0.50;;;14.30;99.90;;;;;;5039513;28;20049;-70
2020/12/22 12:48:46;;;;;;;0.40;0.30;;;14.30;99.90;;;;;;5053686;28;20025;-67
2020/12/22 12:51:12;;;;;;;1.05;0.50;;;14.30;99.90;;;;;;5054303;28;20029;-70